This is the latest recevied weather packets stored in our database for station/object WB4ZUT. If no packets are shown the sender has not sent any weather packets the latest 10 day(s).
| Time | Temp. | Humidity | Pressure | Rain* | Wind** | Luminosity | Snow |
|---|---|---|---|---|---|---|---|
| 1777396133 | 22.22° C | 74% | 1016 hPa | 0 mm | - | 794 W/m² | - |
| 1777395829 | 22.22° C | 74% | 1015.9 hPa | 0 mm | - | 385 W/m² | - |
| 1777395524 | 22.22° C | 73% | 1015.8 hPa | 0 mm | - | 914 W/m² | - |
| 1777395221 | 22.22° C | 72% | 1015.8 hPa | 0 mm | - | 831 W/m² | - |
| 1777394919 | 21.67° C | 73% | 1016.3 hPa | 0 mm | - | 869 W/m² | - |
| 1777394614 | 21.67° C | 74% | 1016.1 hPa | 0 mm | - | 771 W/m² | - |
| 1777394311 | 21.11° C | 78% | 1016.4 hPa | 0 mm | - | 815 W/m² | - |
| 1777394007 | 21.67° C | 77% | 1016.2 hPa | 0 mm | - | 280 W/m² | - |
| 1777393701 | 21.67° C | 73% | 1016.6 hPa | 0 mm | - | 319 W/m² | - |
| 1777393397 | 21.11° C | 76% | 1016.4 hPa | 0 mm | - | 1060 W/m² | - |
| 1777393093 | 21.67° C | 75% | 1016.3 hPa | 0 mm | - | 311 W/m² | - |
| 1777392789 | 21.11° C | 76% | 1016.6 hPa | 0 mm | - | 674 W/m² | - |
| 1777392485 | 21.11° C | 77% | 1016.7 hPa | 0 mm | - | 448 W/m² | - |
| 1777392181 | 20.56° C | 78% | 1016.4 hPa | 0 mm | - | 969 W/m² | - |
| 1777391876 | 20.56° C | 79% | 1016.2 hPa | 0 mm | - | 303 W/m² | - |
| 1777391571 | 20.56° C | 80% | 1015.9 hPa | 0 mm | - | 335 W/m² | - |
| 1777391268 | 20° C | 81% | 1016.3 hPa | 0 mm | - | 519 W/m² | - |
| 1777390965 | 20° C | 82% | 1016.1 hPa | 0 mm | - | 246 W/m² | - |
| 1777390660 | 20° C | 80% | 1016 hPa | 0 mm | - | 448 W/m² | - |
| 1777390358 | 20° C | 82% | 1016.1 hPa | 0 mm | - | 413 W/m² | - |
| 1777390053 | 19.44° C | 86% | 1016.3 hPa | 0 mm | - | 913 W/m² | - |
| 1777389751 | 18.89° C | 87% | 1016.2 hPa | 0 mm | - | 185 W/m² | - |
| 1777389447 | 18.89° C | 86% | 1016.3 hPa | 0 mm | - | 200 W/m² | - |
| 1777389145 | 18.89° C | 87% | 1016.2 hPa | 0 mm | - | 364 W/m² | - |
| 1777388842 | 19.44° C | 85% | 1015.8 hPa | 0 mm | - | 152 W/m² | - |
* Rain latest hour (hover to see other rain measurements)
** Current wind speed in m/s (hover to see current wind gust speed)